Time;durP1;ratioP1;P1;durP2;ratioP2;P2;SDS_P1;SDS_P2;PMS_P1;PMS_P2;Temp;Humidity;BMP_temperature;BMP_pressure;BME280_temperature;BME280_humidity;BME280_pressure;Samples;Min_cycle;Max_cycle;Signal;HPM_P1;HPM_P2
2023/03/23 00:00:45;;;;;;;27.45;20.80;;;;;;;11.61;66.00;99512.53;4954133;28;20547;-80
2023/03/23 00:03:11;;;;;;;26.67;21.73;;;;;;;11.75;66.35;99535.50;4954171;28;20098;-78
2023/03/23 00:05:40;;;;;;;29.23;21.73;;;;;;;11.81;66.01;99539.25;4954112;28;20019;-78
2023/03/23 00:08:08;;;;;;;28.55;22.95;;;;;;;11.79;66.38;99550.03;4954052;28;20505;-77
2023/03/23 00:10:35;;;;;;;23.77;19.90;;;;;;;11.97;66.57;99566.34;4953985;28;20015;-77
2023/03/23 00:13:02;;;;;;;32.42;22.55;;;;;;;11.71;66.41;99532.41;4952728;28;20563;-77
2023/03/23 00:15:32;;;;;;;28.63;21.27;;;;;;;11.69;66.56;99515.91;4953791;28;20034;-77
2023/03/23 00:18:04;;;;;;;31.00;23.67;;;;;;;11.98;66.40;99562.69;4953885;28;20031;-77
2023/03/23 00:20:30;;;;;;;30.05;22.65;;;;;;;11.82;66.39;99528.47;4954075;28;20027;-77
2023/03/23 00:22:59;;;;;;;32.22;24.30;;;;;;;11.48;66.48;99475.38;4952965;28;20152;-77
2023/03/23 00:25:25;;;;;;;31.30;24.73;;;;;;;11.98;66.55;99554.75;4953765;28;20526;-77
2023/03/23 00:27:51;;;;;;;31.80;25.30;;;;;;;12.01;66.75;99556.19;4953799;28;20098;-78
2023/03/23 00:30:17;;;;;;;26.85;22.13;;;;;;;11.69;66.95;99513.25;4984748;28;20034;-78
2023/03/23 00:32:43;;;;;;;25.23;20.55;;;;;;;11.99;66.20;99566.16;4953598;28;20099;-77
2023/03/23 00:35:09;;;;;;;25.52;21.17;;;;;;;11.57;66.40;99487.47;4953676;28;20106;-77
2023/03/23 00:37:35;;;;;;;24.88;20.02;;;;;;;11.57;66.06;99505.97;4952232;28;20481;-78
2023/03/23 00:40:05;;;;;;;25.52;20.88;;;;;;;11.95;66.10;99565.69;4953597;28;20086;-79
2023/03/23 00:42:36;;;;;;;24.38;19.50;;;;;;;11.49;66.45;99485.75;4953463;28;20051;-78
2023/03/23 00:45:02;;;;;;;27.58;20.20;;;;;;;11.93;66.21;99562.44;4953573;28;20086;-77
2023/03/23 00:47:28;;;;;;;23.52;17.88;;;;;;;11.66;66.31;99504.88;4953246;28;20031;-77
2023/03/23 00:49:55;;;;;;;23.83;18.85;;;;;;;11.94;66.59;99550.00;4953281;28;20107;-77
2023/03/23 00:52:21;;;;;;;27.17;20.05;;;;;;;11.48;66.04;99475.38;4953277;28;20413;-77
2023/03/23 00:54:47;;;;;;;24.90;19.27;;;;;;;11.59;66.46;99507.44;4953391;28;20034;-77
2023/03/23 00:57:12;;;;;;;23.70;18.50;;;;;;;11.61;66.65;99489.56;4953442;28;20037;-77
2023/03/23 00:59:37;;;;;;;26.05;19.02;;;;;;;11.81;66.49;99518.91;4953345;28;20047;-78
2023/03/23 01:02:03;;;;;;;28.45;22.52;;;;;;;11.79;66.92;99518.28;4953640;28;20023;-78
2023/03/23 01:04:31;;;;;;;27.27;22.48;;;;;;;11.23;66.30;99427.28;4953508;28;20020;-78
2023/03/23 01:06:57;;;;;;;23.60;18.45;;;;;;;11.88;66.60;99530.38;4953460;28;20023;-78
2023/03/23 01:09:22;;;;;;;23.13;18.13;;;;;;;11.87;66.21;99530.56;4984388;28;20110;-79
2023/03/23 01:11:50;;;;;;;25.80;20.25;;;;;;;11.97;66.63;99537.22;4968075;28;20492;-77
2023/03/23 01:14:17;;;;;;;25.83;21.08;;;;;;;12.00;66.04;99538.69;4953011;28;20027;-79
2023/03/23 01:16:42;;;;;;;23.77;19.63;;;;;;;11.61;66.07;99488.75;4952971;28;20023;-78
2023/03/23 01:19:08;;;;;;;26.30;21.85;;;;;;;11.97;66.80;99536.41;4953185;28;20034;-78
2023/03/23 01:21:34;;;;;;;25.10;20.20;;;;;;;11.52;66.98;99477.44;4953069;28;20028;-78
2023/03/23 01:23:59;;;;;;;23.90;21.23;;;;;;;11.83;67.02;99531.94;4953173;28;20031;-78
2023/03/23 01:26:26;;;;;;;25.48;21.85;;;;;;;11.87;66.41;99534.03;4953218;28;20031;-78
2023/03/23 01:28:52;;;;;;;26.10;23.40;;;;;;;11.23;67.12;99441.31;4953226;28;20038;-79
2023/03/23 01:31:20;;;;;;;28.45;22.70;;;;;;;11.77;67.20;99541.41;4953333;28;20023;-78
2023/03/23 01:33:46;;;;;;;22.80;18.42;;;;;;;11.68;67.08;99529.31;4954006;28;20023;-78
2023/03/23 01:36:18;;;;;;;26.02;18.65;;;;;;;11.38;67.59;99494.16;4988249;28;20027;-78
2023/03/23 01:38:45;;;;;;;23.65;19.38;;;;;;;11.68;67.15;99537.25;4956792;28;20031;-78
2023/03/23 01:41:12;;;;;;;24.60;19.17;;;;;;;11.37;67.42;99474.03;4955408;28;20023;-78
2023/03/23 01:44:03;;;;;;;23.08;18.30;;;;;;;11.23;66.71;99446.59;4971606;28;20156;-78
2023/03/23 01:46:34;;;;;;;25.58;19.17;;;;;;;11.61;66.83;99494.03;4956744;28;20053;-78
2023/03/23 01:49:13;;;;;;;23.83;19.20;;;;;;;11.70;66.67;99522.00;4956697;28;20019;-78
2023/03/23 01:51:50;;;;;;;24.98;19.83;;;;;;;11.74;67.23;99528.56;4956505;28;20023;-78
2023/03/23 01:54:20;;;;;;;24.10;18.48;;;;;;;11.64;67.55;99498.94;4956350;28;20412;-78
2023/03/23 01:56:55;;;;;;;21.90;17.23;;;;;;;11.84;67.92;99531.75;4956373;28;20030;-78
2023/03/23 01:59:23;;;;;;;27.80;20.42;;;;;;;11.69;67.27;99494.75;4956203;28;20055;-78
2023/03/23 02:01:52;;;;;;;21.85;19.45;;;;;;;11.32;67.30;99437.56;4956376;28;20027;-78
2023/03/23 02:04:18;;;;;;;27.45;21.67;;;;;;;11.80;67.02;99514.63;4956313;28;20015;-78
2023/03/23 02:06:44;;;;;;;30.77;21.48;;;;;;;11.91;67.00;99537.16;4956266;28;20030;-78
2023/03/23 02:09:13;;;;;;;24.95;21.10;;;;;;;11.92;67.15;99534.31;4956590;28;20027;-78
2023/03/23 02:11:39;;;;;;;28.73;21.00;;;;;;;11.91;67.20;99537.97;4956545;28;20015;-78
2023/03/23 02:14:05;;;;;;;29.17;21.42;;;;;;;11.30;67.03;99454.63;4956348;28;20103;-78
2023/03/23 02:16:44;;;;;;;29.67;22.42;;;;;;;11.81;67.47;99526.03;4955452;29;20457;-78
2023/03/23 02:19:29;;;;;;;27.00;20.73;;;;;;;11.92;67.27;99547.56;4988942;28;20023;-78
2023/03/23 02:22:22;;;;;;;28.85;21.88;;;;;;;11.92;67.59;99555.50;4975127;29;20027;-79
2023/03/23 02:25:08;;;;;;;25.48;20.08;;;;;;;11.90;67.48;99546.09;4956170;28;20034;-77
2023/03/23 02:27:55;;;;;;;26.50;18.30;;;;;;;11.90;67.42;99559.34;4955975;28;20102;-78
2023/03/23 02:31:08;;;;;;;26.58;19.45;;;;;;;11.85;67.26;99553.75;4986919;28;20027;-78
2023/03/23 02:33:44;;;;;;;21.05;17.40;;;;;;;11.83;67.06;99558.41;4951313;28;20039;-78
2023/03/23 02:36:31;;;;;;;19.35;16.33;;;;;;;11.81;67.38;99555.94;4955682;28;20028;-78
2023/03/23 02:39:00;;;;;;;19.73;14.80;;;;;;;11.56;67.32;99515.75;4955929;28;20086;-78
2023/03/23 02:41:31;;;;;;;18.30;15.02;;;;;;;11.33;67.16;99481.50;4986735;28;20019;-78
2023/03/23 02:43:58;;;;;;;21.38;16.58;;;;;;;11.22;66.86;99463.47;4955731;28;20019;-78
2023/03/23 02:46:25;;;;;;;19.63;15.70;;;;;;;11.63;67.27;99581.94;4954621;28;20038;-78
2023/03/23 02:48:56;;;;;;;20.02;14.82;;;;;;;11.85;67.07;99559.03;4955479;28;20088;-78
2023/03/23 02:51:24;;;;;;;18.85;14.48;;;;;;;11.86;67.22;99564.16;4955571;28;20390;-78
2023/03/23 02:53:51;;;;;;;18.73;14.38;;;;;;;11.66;66.87;99526.03;4955453;28;20019;-78
2023/03/23 02:56:18;;;;;;;19.90;14.88;;;;;;;11.16;66.60;99448.34;4955383;28;20090;-78
2023/03/23 02:58:44;;;;;;;17.80;14.93;;;;;;;11.23;66.84;99472.22;4954289;29;20090;-78
2023/03/23 03:01:25;;;;;;;19.35;15.07;;;;;;;11.80;66.99;99561.41;4955060;28;20051;-78
2023/03/23 03:03:51;;;;;;;15.95;13.15;;;;;;;11.19;67.50;99478.88;4986033;28;20469;-78
2023/03/23 03:06:36;;;;;;;18.50;14.40;;;;;;;11.79;67.32;99573.81;4955011;28;20035;-78
2023/03/23 03:09:15;;;;;;;16.60;13.80;;;;;;;11.80;67.20;99572.81;4955414;28;20436;-78
2023/03/23 03:11:46;;;;;;;17.95;13.60;;;;;;;11.81;67.44;99571.00;4955198;28;20031;-78
2023/03/23 03:14:24;;;;;;;18.27;14.07;;;;;;;11.73;67.52;99574.53;4955046;28;20026;-78
2023/03/23 03:17:11;;;;;;;19.10;14.65;;;;;;;11.09;67.35;99464.09;4954846;28;20059;-77
2023/03/23 03:19:46;;;;;;;20.40;15.00;;;;;;;11.70;67.54;99569.63;4969720;28;20019;-77
2023/03/23 03:22:13;;;;;;;18.60;14.18;;;;;;;11.72;67.63;99573.72;4954894;28;20024;-77
2023/03/23 03:24:42;;;;;;;19.67;13.80;;;;;;;11.76;67.57;99574.97;4954850;28;20031;-78
2023/03/23 03:27:14;;;;;;;18.70;13.88;;;;;;;11.72;67.37;99573.72;4954899;28;20019;-78
2023/03/23 03:29:41;;;;;;;19.55;13.68;;;;;;;11.64;67.60;99559.78;4953710;28;20027;-78
2023/03/23 03:32:11;;;;;;;19.05;14.27;;;;;;;11.73;67.66;99574.53;4954979;28;20110;-78
2023/03/23 03:34:37;;;;;;;17.42;13.35;;;;;;;11.73;67.55;99583.28;4969503;28;20495;-78
2023/03/23 03:37:05;;;;;;;18.33;13.57;;;;;;;11.06;67.26;99475.03;4954560;28;20027;-78
2023/03/23 03:39:35;;;;;;;18.83;13.07;;;;;;;11.74;67.79;99576.16;4954585;28;20035;-78
2023/03/23 03:42:01;;;;;;;14.35;12.07;;;;;;;11.17;67.65;99492.28;4954346;28;20113;-78
2023/03/23 03:44:26;;;;;;;16.73;12.15;;;;;;;11.51;67.44;99552.50;4954270;28;20027;-78
2023/03/23 03:46:52;;;;;;;14.18;11.60;;;;;;;11.74;67.73;99590.22;4954336;28;20068;-78
2023/03/23 03:49:17;;;;;;;16.30;13.02;;;;;;;11.42;67.46;99543.84;4954573;28;20150;-78
2023/03/23 03:51:43;;;;;;;16.92;12.90;;;;;;;11.48;68.16;99542.28;4954277;28;20027;-78
2023/03/23 03:54:10;;;;;;;17.92;14.02;;;;;;;11.31;67.00;99527.63;4954459;28;20031;-78
2023/03/23 03:56:37;;;;;;;20.05;14.20;;;;;;;11.65;67.90;99593.97;4953834;28;20098;-78
2023/03/23 03:59:03;;;;;;;18.13;13.88;;;;;;;11.07;67.92;99494.34;4952762;28;20481;-77
2023/03/23 04:01:28;;;;;;;18.17;14.23;;;;;;;11.62;68.00;99582.94;4954160;28;20102;-77
2023/03/23 04:03:55;;;;;;;16.88;14.18;;;;;;;11.64;68.04;99588.88;4953806;28;20464;-77
2023/03/23 04:06:21;;;;;;;18.08;14.25;;;;;;;11.08;67.89;99496.78;4985264;28;20023;-77
2023/03/23 04:08:46;;;;;;;21.58;14.15;;;;;;;11.43;68.04;99544.66;4968797;28;20107;-77
2023/03/23 04:11:13;;;;;;;18.95;14.68;;;;;;;11.40;68.30;99564.34;4985016;28;20023;-77
2023/03/23 04:13:39;;;;;;;19.27;14.57;;;;;;;11.58;68.39;99585.13;4953726;28;20027;-77
2023/03/23 04:16:05;;;;;;;20.48;15.30;;;;;;;11.21;68.61;99527.91;4953712;29;20526;-77
2023/03/23 04:18:32;;;;;;;18.85;14.70;;;;;;;11.08;68.28;99498.63;4953949;28;20034;-77
2023/03/23 04:20:59;;;;;;;18.75;14.00;;;;;;;11.41;68.23;99558.06;4953873;28;20027;-77
2023/03/23 04:23:26;;;;;;;20.17;14.45;;;;;;;11.21;68.65;99537.66;4953851;28;20492;-77
2023/03/23 04:25:53;;;;;;;19.63;14.82;;;;;;;11.59;68.29;99594.69;4953908;28;20493;-77
2023/03/23 04:28:23;;;;;;;18.67;14.75;;;;;;;11.58;67.73;99605.47;4953684;28;20488;-77
2023/03/23 04:30:52;;;;;;;20.00;15.30;;;;;;;11.21;68.14;99549.03;4953585;28;20023;-76
2023/03/23 04:33:19;;;;;;;18.30;14.18;;;;;;;11.57;68.50;99603.81;4953559;28;20019;-76
2023/03/23 04:35:45;;;;;;;20.13;14.75;;;;;;;11.08;67.75;99531.16;4953525;28;20023;-76
2023/03/23 04:38:13;;;;;;;19.67;15.35;;;;;;;11.58;68.31;99602.81;4953444;28;20031;-76
2023/03/23 04:40:40;;;;;;;19.95;15.60;;;;;;;11.59;67.84;99607.94;4953319;28;20082;-76
2023/03/23 04:43:06;;;;;;;21.45;16.17;;;;;;;11.28;68.40;99581.66;4953549;28;20452;-76
2023/03/23 04:45:33;;;;;;;21.98;16.83;;;;;;;11.34;68.12;99558.97;4953352;28;20073;-76
2023/03/23 04:48:01;;;;;;;20.45;16.40;;;;;;;11.69;68.44;99612.94;4953839;28;20020;-77
2023/03/23 04:50:32;;;;;;;22.00;17.40;;;;;;;11.17;68.04;99544.31;4953647;28;20122;-77
2023/03/23 04:52:59;;;;;;;26.38;20.25;;;;;;;11.66;68.55;99621.22;4953335;28;20062;-77
2023/03/23 04:55:25;;;;;;;28.83;20.42;;;;;;;11.40;68.26;99596.06;4984192;28;20456;-77
2023/03/23 04:57:51;;;;;;;28.52;21.27;;;;;;;11.50;68.38;99616.13;4953174;28;20032;-77
2023/03/23 05:00:17;;;;;;;25.80;19.13;;;;;;;11.48;68.30;99616.31;4953142;28;20059;-76
2023/03/23 05:02:46;;;;;;;27.20;19.45;;;;;;;11.16;68.19;99559.34;4953314;28;20487;-76
2023/03/23 05:05:14;;;;;;;22.23;17.98;;;;;;;11.58;68.36;99622.16;4953259;28;20051;-77
2023/03/23 05:07:41;;;;;;;23.42;18.73;;;;;;;11.59;68.13;99621.16;4953385;28;20449;-77
2023/03/23 05:10:10;;;;;;;26.45;19.25;;;;;;;11.60;67.94;99630.72;4956251;28;20484;-76
2023/03/23 05:12:35;;;;;;;20.80;16.27;;;;;;;11.39;68.32;99602.38;4957334;28;20011;-76
2023/03/23 05:15:01;;;;;;;22.23;15.40;;;;;;;11.60;68.02;99643.13;4957174;28;20463;-76
2023/03/23 05:17:29;;;;;;;20.73;16.17;;;;;;;11.50;67.94;99624.88;4955790;29;20560;-77
2023/03/23 05:19:56;;;;;;;19.50;15.38;;;;;;;11.09;68.18;99566.31;4956811;28;20020;-77
2023/03/23 05:22:22;;;;;;;21.00;15.77;;;;;;;11.31;67.87;99593.69;4988057;28;20030;-77
2023/03/23 05:24:48;;;;;;;24.85;17.50;;;;;;;11.66;68.07;99648.50;4956981;28;20023;-76
2023/03/23 05:27:14;;;;;;;22.98;17.65;;;;;;;11.65;68.68;99649.50;4956984;28;20492;-76
2023/03/23 05:29:40;;;;;;;23.23;17.48;;;;;;;11.50;67.95;99635.47;4987775;28;20039;-77
2023/03/23 05:32:09;;;;;;;24.25;18.27;;;;;;;11.33;67.93;99610.19;4956771;28;20048;-76
2023/03/23 05:34:34;;;;;;;20.13;16.77;;;;;;;11.67;67.46;99658.06;4971737;28;20472;-77
2023/03/23 05:37:02;;;;;;;23.38;17.27;;;;;;;10.94;67.78;99529.31;4956787;28;20062;-77
2023/03/23 05:39:29;;;;;;;21.83;17.38;;;;;;;11.72;67.83;99657.53;4957015;28;20070;-76
2023/03/23 05:41:55;;;;;;;21.92;16.60;;;;;;;11.17;68.02;99555.69;4956709;28;20142;-76
2023/03/23 05:44:21;;;;;;;22.55;17.65;;;;;;;11.79;67.72;99655.81;4956620;28;20098;-77
2023/03/23 05:46:47;;;;;;;21.40;16.33;;;;;;;11.82;67.97;99658.09;4956546;28;20485;-77
2023/03/23 05:49:15;;;;;;;21.13;17.02;;;;;;;11.28;67.63;99579.03;4956459;28;20035;-77
2023/03/23 05:51:41;;;;;;;25.45;18.02;;;;;;;11.04;67.14;99547.53;4956346;28;20054;-76
2023/03/23 05:54:07;;;;;;;20.70;17.05;;;;;;;11.30;67.34;99598.16;4956246;28;20102;-77
2023/03/23 05:56:32;;;;;;;27.17;19.60;;;;;;;11.66;67.88;99653.78;4956273;28;20023;-77
2023/03/23 05:58:58;;;;;;;27.00;21.17;;;;;;;11.26;67.77;99594.25;4956271;28;20031;-77
2023/03/23 06:01:25;;;;;;;29.77;22.20;;;;;;;11.66;67.90;99659.09;4956504;28;20023;-76
2023/03/23 06:03:53;;;;;;;27.23;21.17;;;;;;;11.60;67.92;99643.13;4956314;28;20050;-76
2023/03/23 06:06:20;;;;;;;31.85;24.13;;;;;;;11.78;67.92;99678.81;4975376;28;20112;-76
2023/03/23 06:08:48;;;;;;;35.47;24.10;;;;;;;11.78;67.97;99673.53;4975291;28;20021;-76
2023/03/23 06:11:14;;;;;;;31.73;23.77;;;;;;;11.80;67.49;99670.69;4976043;28;20416;-77
2023/03/23 06:13:39;;;;;;;34.05;25.60;;;;;;;11.68;67.92;99688.00;4978081;28;20023;-76
2023/03/23 06:16:05;;;;;;;33.72;24.17;;;;;;;11.25;68.52;99613.75;4974015;28;20030;-77
2023/03/23 06:18:33;;;;;;;36.95;24.45;;;;;;;11.28;68.29;99605.44;4974028;28;20023;-76
2023/03/23 06:20:59;;;;;;;35.15;24.90;;;;;;;11.58;68.15;99663.63;4974083;28;20033;-76
2023/03/23 06:23:26;;;;;;;32.05;23.40;;;;;;;11.27;67.72;99609.09;4973982;28;20026;-77
2023/03/23 06:25:58;;;;;;;33.78;24.50;;;;;;;11.31;67.63;99613.03;4990737;28;20019;-77
2023/03/23 06:28:24;;;;;;;32.58;21.90;;;;;;;11.66;67.72;99650.31;4977973;28;20024;-76
2023/03/23 06:30:49;;;;;;;30.30;22.92;;;;;;;11.94;67.79;99688.44;4972830;28;20031;-76
2023/03/23 06:33:15;;;;;;;31.60;22.38;;;;;;;11.99;67.66;99693.16;4973612;28;20030;-77
2023/03/23 06:35:40;;;;;;;34.78;23.00;;;;;;;12.00;67.38;99698.28;4987898;28;20117;-76
2023/03/23 06:38:06;;;;;;;31.42;21.02;;;;;;;11.61;67.78;99629.72;4976216;28;20161;-76
2023/03/23 06:40:31;;;;;;;26.90;20.98;;;;;;;11.54;67.37;99620.06;4973799;28;20030;-76
2023/03/23 06:42:58;;;;;;;33.58;23.40;;;;;;;11.97;67.00;99696.00;4973119;28;20031;-76
2023/03/23 06:45:24;;;;;;;24.35;19.50;;;;;;;12.01;67.33;99699.91;4973468;28;20029;-76
2023/03/23 06:47:49;;;;;;;26.63;19.92;;;;;;;12.04;67.28;99707.50;4972673;28;20022;-76
2023/03/23 06:50:16;;;;;;;21.63;16.23;;;;;;;11.66;66.95;99664.38;4972280;28;20491;-78
2023/03/23 06:52:45;;;;;;;23.88;16.42;;;;;;;11.11;66.82;99559.84;4969482;28;20085;-76
2023/03/23 06:55:11;;;;;;;23.92;17.98;;;;;;;11.82;66.92;99678.44;4971177;28;20488;-76
2023/03/23 06:57:36;;;;;;;27.88;19.70;;;;;;;11.42;66.41;99615.22;4975140;28;20110;-76
2023/03/23 07:00:04;;;;;;;23.00;18.48;;;;;;;11.52;66.27;99635.28;4977581;28;20134;-76
2023/03/23 07:02:30;;;;;;;30.13;19.88;;;;;;;11.96;66.80;99714.69;4980466;28;20516;-77
2023/03/23 07:04:57;;;;;;;29.67;20.23;;;;;;;11.80;66.34;99678.63;4976635;28;20022;-77
2023/03/23 07:07:22;;;;;;;28.88;20.63;;;;;;;11.69;65.97;99668.47;4976202;28;20034;-76
2023/03/23 07:09:47;;;;;;;30.25;22.27;;;;;;;11.50;66.61;99646.03;4979620;28;20031;-77
2023/03/23 07:12:14;;;;;;;35.95;24.30;;;;;;;11.63;66.42;99671.84;4977537;28;20090;-76
2023/03/23 07:14:39;;;;;;;35.42;25.58;;;;;;;11.49;66.99;99652.31;4975306;28;20042;-76
2023/03/23 07:17:05;;;;;;;34.80;24.60;;;;;;;11.38;66.67;99623.69;4965899;28;20054;-76
2023/03/23 07:19:31;;;;;;;33.35;25.08;;;;;;;11.61;66.65;99655.34;4980759;28;20044;-76
2023/03/23 07:21:57;;;;;;;36.67;27.00;;;;;;;11.86;67.05;99693.78;4981306;28;20023;-76
2023/03/23 07:24:22;;;;;;;37.80;27.88;;;;;;;12.12;67.10;99725.09;4978515;28;20058;-76
2023/03/23 07:26:47;;;;;;;39.20;29.50;;;;;;;11.93;67.60;99691.25;4977956;28;20033;-76
2023/03/23 07:29:13;;;;;;;35.60;25.85;;;;;;;11.77;66.91;99657.81;4976848;28;20491;-76
2023/03/23 07:31:38;;;;;;;38.67;27.83;;;;;;;12.08;66.95;99703.47;4978650;28;20018;-76
2023/03/23 07:34:04;;;;;;;37.88;27.40;;;;;;;11.85;67.34;99676.25;4979882;28;20496;-76
2023/03/23 07:36:30;;;;;;;35.92;25.13;;;;;;;12.30;67.13;99725.53;4988041;28;20400;-76
2023/03/23 07:38:56;;;;;;;33.10;25.55;;;;;;;11.92;67.35;99660.50;4973345;28;20050;-76
2023/03/23 07:41:22;;;;;;;32.17;26.52;;;;;;;12.42;67.28;99728.53;4973031;28;20053;-76
2023/03/23 07:43:47;;;;;;;37.15;28.13;;;;;;;12.39;67.24;99718.31;4987888;28;20055;-76
2023/03/23 07:46:13;;;;;;;44.60;30.60;;;;;;;12.20;66.89;99685.28;4973284;28;20062;-76
2023/03/23 07:48:39;;;;;;;37.67;29.13;;;;;;;12.57;67.10;99728.50;4973121;28;20089;-76
2023/03/23 07:51:05;;;;;;;36.30;28.33;;;;;;;12.12;66.78;99658.09;4972985;28;20011;-76
2023/03/23 07:53:31;;;;;;;34.33;27.25;;;;;;;11.69;66.68;99592.59;4973481;28;20030;-75
2023/03/23 07:55:57;;;;;;;33.55;26.20;;;;;;;12.09;66.91;99662.78;4969973;28;20461;-76
2023/03/23 07:58:23;;;;;;;36.92;28.80;;;;;;;12.70;66.75;99749.88;4972091;28;20019;-76
2023/03/23 08:00:48;;;;;;;36.83;28.92;;;;;;;12.23;67.03;99665.56;4987751;28;20440;-76
2023/03/23 08:03:15;;;;;;;37.13;28.50;;;;;;;12.53;66.79;99711.34;4971886;28;20026;-76
2023/03/23 08:05:42;;;;;;;35.92;28.60;;;;;;;12.79;66.73;99748.75;4972087;28;20090;-77
2023/03/23 08:08:09;;;;;;;35.58;27.15;;;;;;;12.30;67.10;99666.47;4987291;28;20051;-76
2023/03/23 08:10:35;;;;;;;30.48;26.17;;;;;;;12.88;66.33;99763.53;4971974;28;20030;-76
2023/03/23 08:13:01;;;;;;;37.63;29.17;;;;;;;12.91;66.46;99754.38;4975465;28;20034;-76
2023/03/23 08:15:28;;;;;;;35.45;28.58;;;;;;;12.62;66.54;99721.63;4979259;28;20046;-76
2023/03/23 08:17:54;;;;;;;33.85;26.90;;;;;;;12.93;66.84;99760.31;4972583;28;20019;-76
2023/03/23 08:20:20;;;;;;;33.92;26.67;;;;;;;12.86;66.43;99735.56;4972438;28;20029;-76
2023/03/23 08:22:52;;;;;;;34.38;27.45;;;;;;;13.00;66.52;99751.41;4972818;28;20033;-76
2023/03/23 08:25:19;;;;;;;31.25;27.25;;;;;;;12.83;66.30;99723.53;4984403;28;20549;-76
2023/03/23 08:27:44;;;;;;;30.52;25.27;;;;;;;12.98;66.51;99736.72;4982691;28;20065;-75
2023/03/23 08:30:13;;;;;;;30.05;25.73;;;;;;;13.20;66.52;99758.78;4971393;28;20110;-75
2023/03/23 08:32:39;;;;;;;29.95;24.40;;;;;;;12.53;66.05;99647.78;4972045;28;20050;-76
2023/03/23 08:35:06;;;;;;;32.38;26.48;;;;;;;13.03;65.85;99721.06;4994585;28;20044;-77
2023/03/23 08:37:32;;;;;;;34.30;24.98;;;;;;;13.05;65.80;99719.03;4972046;28;20474;-76
2023/03/23 08:39:58;;;;;;;30.27;23.45;;;;;;;12.67;65.80;99645.09;4969665;28;20026;-75
2023/03/23 08:42:24;;;;;;;31.33;25.25;;;;;;;13.35;65.80;99752.38;4971737;28;20128;-77
2023/03/23 08:44:50;;;;;;;29.65;23.88;;;;;;;12.91;65.68;99662.44;4968212;28;20035;-76
2023/03/23 08:47:17;;;;;;;31.52;25.00;;;;;;;13.48;65.40;99738.44;4970297;28;20109;-76
2023/03/23 08:49:43;;;;;;;28.40;23.23;;;;;;;13.39;65.22;99736.94;4971475;28;20491;-77
2023/03/23 08:52:09;;;;;;;28.98;24.13;;;;;;;13.25;65.13;99693.56;4970766;28;20019;-75
2023/03/23 08:54:34;;;;;;;41.67;27.50;;;;;;;13.46;64.85;99708.66;4983488;28;20040;-76
2023/03/23 08:57:01;;;;;;;31.98;24.30;;;;;;;13.90;64.69;99760.59;4980356;28;20031;-76
2023/03/23 08:59:27;;;;;;;27.58;22.70;;;;;;;13.86;64.76;99765.47;4976726;28;20042;-76
2023/03/23 09:01:53;;;;;;;25.95;23.15;;;;;;;13.77;64.73;99750.72;4971547;28;20031;-77
2023/03/23 09:04:18;;;;;;;26.33;22.55;;;;;;;13.90;64.62;99769.38;4969464;28;20077;-77
2023/03/23 09:06:45;;;;;;;29.83;23.45;;;;;;;13.57;64.36;99702.00;4971349;28;20077;-77
2023/03/23 09:09:11;;;;;;;27.67;22.88;;;;;;;13.76;64.53;99733.16;4975305;28;20030;-76
2023/03/23 09:11:38;;;;;;;25.05;22.20;;;;;;;13.81;64.08;99740.53;4970314;28;20478;-76
2023/03/23 09:14:06;;;;;;;26.38;21.33;;;;;;;13.33;64.19;99658.94;4986109;28;20030;-77
2023/03/23 09:16:32;;;;;;;24.17;19.00;;;;;;;14.04;64.01;99764.97;4972168;28;20023;-76
2023/03/23 09:18:58;;;;;;;19.42;17.20;;;;;;;13.62;63.53;99702.22;4974452;28;20110;-75
2023/03/23 09:21:25;;;;;;;18.75;15.38;;;;;;;14.04;63.22;99761.50;4991695;28;20114;-76
2023/03/23 09:23:51;;;;;;;19.65;16.60;;;;;;;13.60;63.06;99693.66;4971438;28;20112;-76
2023/03/23 09:26:17;;;;;;;18.05;16.10;;;;;;;13.55;62.64;99704.84;4976521;28;20018;-76
2023/03/23 09:28:44;;;;;;;18.95;16.63;;;;;;;13.83;62.75;99731.34;4974629;28;20424;-77
2023/03/23 09:31:10;;;;;;;20.33;15.93;;;;;;;14.11;63.11;99751.72;4986897;28;20061;-77
2023/03/23 09:33:36;;;;;;;18.52;16.65;;;;;;;14.11;62.56;99741.94;4977123;28;20030;-77
2023/03/23 09:36:02;;;;;;;21.85;19.63;;;;;;;13.83;62.42;99688.88;4974589;28;20093;-78
2023/03/23 09:38:32;;;;;;;20.92;17.00;;;;;;;14.30;62.08;99757.19;4970242;28;20026;-78
2023/03/23 09:41:12;;;;;;;20.40;18.30;;;;;;;13.88;61.65;99693.63;4986772;28;20023;-77
2023/03/23 09:43:53;;;;;;;21.08;17.15;;;;;;;14.36;62.06;99760.06;4969343;28;20149;-77
2023/03/23 09:46:35;;;;;;;19.80;17.00;;;;;;;14.43;61.58;99761.75;4969760;28;20085;-77
2023/03/23 09:49:22;;;;;;;20.33;15.90;;;;;;;14.49;61.35;99754.84;5001067;28;20022;-78
2023/03/23 09:51:53;;;;;;;16.60;14.35;;;;;;;14.55;61.20;99762.03;4971836;28;20058;-77
2023/03/23 09:54:38;;;;;;;15.45;13.88;;;;;;;14.53;61.29;99759.56;4970362;28;20042;-77
2023/03/23 09:57:11;;;;;;;18.00;15.45;;;;;;;14.50;60.93;99740.53;4971944;28;20023;-78
2023/03/23 09:59:44;;;;;;;17.25;15.45;;;;;;;14.48;60.50;99730.09;4974152;28;20049;-78
2023/03/23 10:02:17;;;;;;;18.00;14.50;;;;;;;14.65;60.63;99743.88;4971928;28;20068;-77
2023/03/23 10:04:48;;;;;;;17.15;14.70;;;;;;;14.35;60.29;99690.19;4968718;28;20034;-78
2023/03/23 10:07:23;;;;;;;17.67;15.77;;;;;;;14.79;60.01;99750.84;4978762;28;20023;-77
2023/03/23 10:09:52;;;;;;;20.00;14.43;;;;;;;14.47;59.58;99696.59;4976314;28;20102;-79
2023/03/23 10:12:42;;;;;;;12.02;10.82;;;;;;;14.76;59.01;99734.50;4987728;28;20027;-77
2023/03/23 10:15:26;;;;;;;13.15;11.85;;;;;;;14.63;59.24;99692.75;4974324;28;20062;-79
2023/03/23 10:18:02;;;;;;;16.90;13.88;;;;;;;15.22;59.05;99754.03;4971748;28;20035;-77
2023/03/23 10:20:46;;;;;;;18.15;14.18;;;;;;;14.89;57.06;99686.69;4970994;28;20023;-78
2023/03/23 10:23:32;;;;;;;16.77;13.40;;;;;;;15.41;57.70;99749.75;4973303;28;20023;-78
2023/03/23 10:26:08;;;;;;;17.77;15.95;;;;;;;15.09;57.05;99682.22;4954401;29;20496;-78
2023/03/23 10:28:33;;;;;;;19.27;17.27;;;;;;;15.73;57.11;99744.69;4964222;28;20026;-78
2023/03/23 10:31:00;;;;;;;19.45;17.45;;;;;;;15.83;56.84;99748.56;5006440;28;20030;-78
2023/03/23 10:33:34;;;;;;;17.38;15.57;;;;;;;15.81;56.71;99728.50;4987554;28;20381;-78
2023/03/23 10:36:15;;;;;;;16.40;14.80;;;;;;;15.53;55.96;99699.41;5002815;28;20118;-78
2023/03/23 10:38:48;;;;;;;15.85;14.32;;;;;;;15.69;56.02;99735.47;4971161;28;20038;-78
2023/03/23 10:41:18;;;;;;;16.10;14.50;;;;;;;15.63;55.90;99736.31;4974934;28;20031;-78
2023/03/23 10:43:44;;;;;;;15.23;13.73;;;;;;;15.60;55.56;99726.03;4972283;28;20058;-78
2023/03/23 10:46:53;;;;;;;14.93;13.50;;;;;;;15.16;54.66;99663.59;4974289;28;20051;-78
2023/03/23 10:49:23;;;;;;;13.25;11.95;;;;;;;15.33;55.70;99707.41;4949974;28;20051;-79
2023/03/23 10:52:30;;;;;;;14.18;12.77;;;;;;;15.41;55.41;99735.63;4973757;28;20101;-78
2023/03/23 10:55:08;;;;;;;13.93;12.63;;;;;;;15.33;55.60;99731.34;4944698;28;20039;-78
2023/03/23 10:57:36;;;;;;;14.70;13.30;;;;;;;14.72;56.06;99633.06;4960365;28;20039;-78
2023/03/23 11:00:19;;;;;;;16.50;14.88;;;;;;;15.25;55.97;99729.69;4970587;28;20039;-78
2023/03/23 11:03:21;;;;;;;16.83;15.02;;;;;;;15.13;56.14;99726.00;4964703;28;20035;-78
2023/03/23 11:05:56;;;;;;;17.17;15.48;;;;;;;15.08;56.54;99731.13;4960653;28;20139;-78
2023/03/23 11:08:31;;;;;;;18.75;16.85;;;;;;;14.50;56.57;99648.38;4971632;28;20045;-79
2023/03/23 11:11:07;;;;;;;16.63;15.10;;;;;;;14.99;56.73;99727.00;4972874;28;20038;-79
2023/03/23 11:13:33;;;;;;;17.02;15.32;;;;;;;14.14;56.87;99594.72;4974234;28;20038;-79
2023/03/23 11:16:00;;;;;;;16.67;14.98;;;;;;;14.63;56.69;99690.09;4973417;28;20066;-78
2023/03/23 11:18:46;;;;;;;16.30;14.60;;;;;;;14.32;56.82;99626.84;4972923;28;20511;-78
2023/03/23 11:21:13;;;;;;;15.80;14.23;;;;;;;14.88;56.85;99727.59;4974340;28;20117;-78
2023/03/23 11:23:48;;;;;;;16.80;15.10;;;;;;;14.63;56.84;99690.91;4970062;28;20033;-78
2023/03/23 11:26:16;;;;;;;17.17;15.38;;;;;;;14.78;56.85;99714.66;4972825;28;20127;-78